Time;durP1;ratioP1;P1;durP2;ratioP2;P2;SDS_P1;SDS_P2;PMS_P1;PMS_P2;Temp;Humidity;BMP_temperature;BMP_pressure;BME280_temperature;BME280_humidity;BME280_pressure;Samples;Min_cycle;Max_cycle;Signal;HPM_P1;HPM_P2
2022/08/04 00:00:08;;;;;;;14.93;4.88;;;;;;;20.91;85.25;101164.97;5103516;28;20073;-70
2022/08/04 00:02:47;;;;;;;8.57;4.82;;;;;;;20.90;85.03;101168.06;5102532;28;20019;-70
2022/08/04 00:05:27;;;;;;;9.15;4.90;;;;;;;20.92;85.09;101157.44;5102050;28;20043;-70
2022/08/04 00:08:20;;;;;;;10.05;4.68;;;;;;;20.97;84.48;101162.97;5086741;28;20028;-70
2022/08/04 00:10:53;;;;;;;12.95;5.90;;;;;;;20.92;84.66;101160.22;5088024;28;20043;-70
2022/08/04 00:13:23;;;;;;;12.40;4.82;;;;;;;20.87;84.80;101157.47;5084667;28;20034;-70
2022/08/04 00:15:56;;;;;;;12.50;5.43;;;;;;;20.90;85.09;101154.13;5090529;28;21052;-69
2022/08/04 00:18:26;;;;;;;11.40;4.60;;;;;;;20.86;85.02;101155.81;5103620;28;20506;-70
2022/08/04 00:20:58;;;;;;;10.77;4.95;;;;;;;20.84;84.83;101152.50;5102186;28;20037;-70
2022/08/04 00:23:25;;;;;;;9.82;4.55;;;;;;;20.77;84.34;101163.16;5084040;28;20024;-70
2022/08/04 00:25:52;;;;;;;9.60;4.90;;;;;;;20.75;83.95;101148.66;5093484;28;20081;-70
2022/08/04 00:28:18;;;;;;;13.52;4.80;;;;;;;20.73;84.09;101152.59;5104625;28;20169;-70
2022/08/04 00:30:43;;;;;;;11.27;5.72;;;;;;;20.65;84.39;101149.56;5101921;28;20035;-70
2022/08/04 00:33:09;;;;;;;13.48;5.88;;;;;;;20.65;84.35;101149.56;5088052;28;20039;-70
2022/08/04 00:35:37;;;;;;;10.25;5.70;;;;;;;20.61;84.17;101146.53;5100993;28;20027;-70
2022/08/04 00:38:03;;;;;;;13.10;5.53;;;;;;;20.58;84.56;101133.16;5100860;28;20363;-70
2022/08/04 00:40:46;;;;;;;12.13;5.60;;;;;;;20.59;83.96;101132.03;5099391;28;20534;-70
2022/08/04 00:43:32;;;;;;;10.45;5.70;;;;;;;20.51;83.87;101132.66;5104066;28;20035;-70
2022/08/04 00:46:23;;;;;;;11.85;6.15;;;;;;;20.49;83.91;101137.69;5102559;28;20588;-70
2022/08/04 00:48:57;;;;;;;11.85;6.32;;;;;;;20.43;85.02;101127.66;5104193;28;20027;-70
2022/08/04 00:51:48;;;;;;;13.70;7.00;;;;;;;20.43;85.02;101133.25;5101986;28;20048;-70
2022/08/04 00:54:40;;;;;;;11.02;6.40;;;;;;;20.55;83.92;101130.94;5096069;28;20052;-69
2022/08/04 00:57:39;;;;;;;13.35;6.78;;;;;;;20.51;83.99;101131.81;5090590;28;20043;-69
2022/08/04 01:00:13;;;;;;;13.57;6.78;;;;;;;20.43;84.35;101119.28;5103602;28;20165;-70
2022/08/04 01:03:12;;;;;;;14.75;6.82;;;;;;;20.44;84.14;101120.97;5102782;28;20012;-70
2022/08/04 01:06:00;;;;;;;13.93;6.97;;;;;;;20.37;84.02;101123.22;5085381;28;20039;-70
2022/08/04 01:08:55;;;;;;;10.55;7.18;;;;;;;20.30;84.74;101115.19;5095618;28;20036;-70
2022/08/04 01:11:36;;;;;;;14.30;6.55;;;;;;;20.29;84.82;101116.31;5076807;28;20040;-70
2022/08/04 01:14:20;;;;;;;15.70;7.75;;;;;;;20.28;85.15;101119.41;5093201;28;20050;-70
2022/08/04 01:16:52;;;;;;;12.45;7.60;;;;;;;20.29;84.94;101115.50;5102951;28;20114;-69
2022/08/04 01:19:39;;;;;;;13.50;7.72;;;;;;;20.33;84.61;101108.22;5101934;28;20036;-70
2022/08/04 01:22:23;;;;;;;13.98;7.60;;;;;;;20.36;84.42;101113.19;5098598;28;20069;-69
2022/08/04 01:25:25;;;;;;;13.93;7.97;;;;;;;20.35;84.33;101105.94;5102033;28;20058;-70
2022/08/04 01:28:22;;;;;;;12.75;7.35;;;;;;;20.30;84.93;101106.00;5082951;28;20020;-70
2022/08/04 01:30:48;;;;;;;13.47;7.23;;;;;;;20.21;85.05;101106.59;5093522;28;20028;-70
2022/08/04 01:33:16;;;;;;;12.38;7.38;;;;;;;20.13;85.38;101103.59;5102030;28;20031;-69
2022/08/04 01:35:45;;;;;;;13.88;7.30;;;;;;;20.09;85.15;101103.34;5087255;28;20027;-69
2022/08/04 01:38:33;;;;;;;12.45;7.43;;;;;;;20.12;84.97;101094.41;5101860;28;20296;-70
2022/08/04 01:41:03;;;;;;;14.85;7.50;;;;;;;20.05;84.93;101091.09;5101769;28;20028;-70
2022/08/04 01:43:31;;;;;;;13.85;7.20;;;;;;;20.05;85.43;101091.09;5100834;28;20035;-70
2022/08/04 01:45:58;;;;;;;11.77;6.85;;;;;;;19.96;85.25;101099.22;5102554;28;20031;-70
2022/08/04 01:48:25;;;;;;;11.82;6.90;;;;;;;19.97;85.11;101086.09;5101897;28;20709;-70
2022/08/04 01:50:52;;;;;;;12.57;7.63;;;;;;;19.91;85.21;101090.03;5086753;28;20039;-69
2022/08/04 01:53:18;;;;;;;16.63;8.30;;;;;;;19.87;85.71;101088.94;5084074;28;20114;-70
2022/08/04 01:55:47;;;;;;;12.85;8.00;;;;;;;19.87;85.17;101088.94;5085940;28;20036;-70
2022/08/04 01:58:16;;;;;;;14.77;7.90;;;;;;;19.89;85.21;101090.34;5099140;28;20016;-70
2022/08/04 02:00:54;;;;;;;14.27;8.80;;;;;;;19.92;84.99;101091.72;5105735;28;20024;-70
2022/08/04 02:03:19;;;;;;;14.93;8.98;;;;;;;19.96;84.93;101087.22;5091794;28;20036;-70
2022/08/04 02:05:47;;;;;;;14.82;8.77;;;;;;;19.83;84.88;101079.53;5086055;28;20116;-70
2022/08/04 02:08:20;;;;;;;14.88;8.40;;;;;;;19.84;84.93;101086.75;5091633;28;20541;-71
2022/08/04 02:11:13;;;;;;;16.42;8.57;;;;;;;19.83;84.83;101074.78;5100910;28;20077;-70
2022/08/04 02:13:44;;;;;;;13.75;8.23;;;;;;;19.82;85.12;101080.63;5090271;28;20029;-70
2022/08/04 02:16:23;;;;;;;16.42;8.25;;;;;;;19.76;85.33;101077.03;5099685;28;20027;-70
2022/08/04 02:19:12;;;;;;;13.75;8.50;;;;;;;19.79;85.61;101070.06;5104152;28;20113;-70
2022/08/04 02:21:39;;;;;;;14.95;8.18;;;;;;;19.73;85.66;101065.63;5106335;28;20031;-70
2022/08/04 02:24:07;;;;;;;14.63;8.13;;;;;;;19.78;85.09;101065.59;5103641;28;20058;-70
2022/08/04 02:26:35;;;;;;;13.98;7.63;;;;;;;19.77;85.16;101066.72;5106221;28;20057;-70
2022/08/04 02:29:06;;;;;;;12.85;8.48;;;;;;;19.77;85.31;101061.13;5103012;28;20027;-70
2022/08/04 02:31:38;;;;;;;14.02;8.13;;;;;;;19.78;84.66;101062.81;5100638;28;20434;-70
2022/08/04 02:34:26;;;;;;;16.30;8.52;;;;;;;19.83;83.80;101058.06;5095747;28;20072;-70
2022/08/04 02:36:54;;;;;;;14.60;8.02;;;;;;;19.85;83.78;101060.53;5103659;28;20046;-70
2022/08/04 02:39:21;;;;;;;15.00;8.23;;;;;;;19.83;84.61;101057.22;5104323;28;20496;-70
2022/08/04 02:41:49;;;;;;;16.27;8.65;;;;;;;19.85;83.85;101053.00;5105422;28;20038;-70
2022/08/04 02:44:20;;;;;;;13.50;7.33;;;;;;;19.85;85.22;101055.78;5096486;28;20024;-70
2022/08/04 02:46:47;;;;;;;18.63;8.02;;;;;;;19.80;85.31;101052.22;5105590;28;20352;-70
2022/08/04 02:49:13;;;;;;;12.35;8.07;;;;;;;19.79;83.43;101054.16;5105045;28;20035;-70
2022/08/04 02:51:46;;;;;;;16.50;7.65;;;;;;;19.82;84.20;101050.81;5105341;28;20491;-70
2022/08/04 02:54:14;;;;;;;16.33;7.75;;;;;;;19.82;84.07;101047.16;5089373;28;20032;-70
2022/08/04 02:56:44;;;;;;;14.18;8.40;;;;;;;19.79;84.28;101053.34;5106125;28;20027;-70
2022/08/04 02:59:12;;;;;;;17.02;7.28;;;;;;;19.79;84.64;101047.75;5103625;27;20552;-70
2022/08/04 03:01:37;;;;;;;;;;;;;;;19.95;82.88;101046.53;5104012;28;20103;-70
2022/08/04 03:04:35;;;;;;;14.30;7.60;;;;;;;19.85;83.82;101041.88;5105543;28;20457;-70
2022/08/04 03:07:56;;;;;;;16.33;8.50;;;;;;;19.90;82.91;101043.78;5103909;28;20055;-71
2022/08/04 03:10:35;;;;;;;13.35;7.70;;;;;;;19.86;83.33;101042.69;5041375;28;20041;-71
2022/08/04 03:13:25;;;;;;;16.30;7.75;;;;;;;19.81;83.32;101043.56;5056113;28;20060;-71
2022/08/04 03:16:12;;;;;;;16.58;8.43;;;;;;;19.86;82.92;101045.47;5095945;28;20097;-71
2022/08/04 03:19:18;;;;;;;17.67;8.55;;;;;;;19.87;83.04;101038.78;5103216;28;20092;-70
2022/08/04 03:22:21;;;;;;;15.63;8.00;;;;;;;19.86;83.32;101046.31;5081517;28;20056;-71
2022/08/04 03:25:03;;;;;;;17.90;8.48;;;;;;;19.74;83.63;101056.16;5094379;28;20038;-70
2022/08/04 03:28:12;;;;;;;15.30;7.97;;;;;;;19.67;83.60;101068.44;5097905;28;20064;-71
2022/08/04 03:31:04;;;;;;;16.77;8.23;;;;;;;19.61;83.80;101069.56;5066192;28;20104;-70
2022/08/04 03:33:43;;;;;;;16.10;7.80;;;;;;;19.60;84.00;101053.97;5091735;28;20115;-70
2022/08/04 03:36:44;;;;;;;16.77;7.55;;;;;;;19.58;84.56;101055.38;5095646;28;20027;-70
2022/08/04 03:39:31;;;;;;;17.00;8.27;;;;;;;19.50;84.89;101053.16;5103493;28;20032;-70
2022/08/04 03:42:05;;;;;;;17.17;8.30;;;;;;;19.39;85.10;101050.41;5098174;28;20869;-70
2022/08/04 03:45:07;;;;;;;15.77;8.73;;;;;;;19.47;84.55;101051.81;5104837;28;20059;-71
2022/08/04 03:48:01;;;;;;;17.88;8.70;;;;;;;19.46;85.31;101044.53;5092001;28;20035;-70
2022/08/04 03:50:45;;;;;;;15.88;8.32;;;;;;;19.44;85.08;101052.34;5095276;28;20576;-70
2022/08/04 03:53:35;;;;;;;14.90;8.48;;;;;;;19.37;85.50;101061.03;5091672;28;20240;-70
2022/08/04 03:56:16;;;;;;;17.90;8.85;;;;;;;19.37;84.76;101057.41;5090421;28;20039;-70
2022/08/04 03:59:05;;;;;;;17.63;8.68;;;;;;;19.32;85.72;101065.78;5103665;28;20118;-71
2022/08/04 04:01:52;;;;;;;15.82;8.40;;;;;;;19.30;85.99;101076.34;5102199;28;20039;-71
2022/08/04 04:04:37;;;;;;;14.80;8.15;;;;;;;19.30;85.69;101082.75;5100064;28;20497;-71
2022/08/04 04:07:05;;;;;;;15.32;7.95;;;;;;;19.37;85.38;101080.53;5103029;28;20028;-71
2022/08/04 04:09:57;;;;;;;16.98;7.72;;;;;;;19.40;85.22;101073.53;5086285;28;20024;-71
2022/08/04 04:12:36;;;;;;;15.30;7.85;;;;;;;19.40;85.38;101073.53;5085214;28;20040;-73
2022/08/04 04:15:31;;;;;;;19.20;8.07;;;;;;;19.44;84.94;101074.63;5102443;28;20876;-73
2022/08/04 04:18:14;;;;;;;14.98;7.93;;;;;;;19.47;84.96;101071.31;5103393;28;20127;-72
2022/08/04 04:21:27;;;;;;;14.65;7.80;;;;;;;19.50;84.66;101083.81;5104079;28;20024;-72
2022/08/04 04:24:40;;;;;;;14.25;7.28;;;;;;;19.49;84.87;101084.94;5021013;28;20075;-70
2022/08/04 04:27:17;;;;;;;14.55;7.20;;;;;;;19.49;84.93;101082.97;4995232;28;20038;-70
2022/08/04 04:30:11;;;;;;;15.97;8.80;;;;;;;19.52;85.53;101084.38;5077355;28;20372;-70
2022/08/04 04:33:02;;;;;;;14.63;8.02;;;;;;;19.48;85.56;101084.09;5088486;28;20308;-70
2022/08/04 04:35:36;;;;;;;13.50;7.47;;;;;;;19.41;86.36;101086.34;5091783;28;20618;-70
2022/08/04 04:38:33;;;;;;;19.13;7.68;;;;;;;19.48;85.94;101080.50;5104066;28;20030;-70
2022/08/04 04:41:20;;;;;;;16.10;8.25;;;;;;;19.48;86.82;101086.88;5100895;28;20031;-70
2022/08/04 04:44:06;;;;;;;20.13;7.93;;;;;;;19.52;86.78;101085.22;5103699;28;20143;-70
2022/08/04 04:46:51;;;;;;;16.25;7.60;;;;;;;19.58;86.93;101086.00;5096375;28;20103;-70
2022/08/04 04:49:30;;;;;;;13.18;7.68;;;;;;;19.54;87.11;101085.75;5103182;28;20371;-70
2022/08/04 04:52:35;;;;;;;13.95;8.63;;;;;;;19.57;86.89;101079.63;5103225;28;20387;-70
2022/08/04 04:55:12;;;;;;;15.35;8.23;;;;;;;19.57;86.82;101084.34;5103683;28;20386;-70
2022/08/04 04:57:40;;;;;;;17.17;7.47;;;;;;;19.60;87.38;101081.84;5095647;28;20381;-69
2022/08/04 05:00:08;;;;;;;13.77;7.78;;;;;;;19.70;87.08;101084.56;5101636;28;20671;-70
2022/08/04 05:02:51;;;;;;;;;;;;;;;19.90;85.10;101088.38;5097880;28;20044;-70
2022/08/04 05:05:54;;;;;;;19.75;8.40;;;;;;;19.97;86.28;101097.25;5101237;28;19930;-70
2022/08/04 05:08:38;;;;;;;13.90;7.63;;;;;;;20.02;86.49;101090.81;5099514;28;20073;-69
2022/08/04 05:11:15;;;;;;;20.33;9.32;;;;;;;20.03;86.03;101109.25;5101435;28;20050;-70
2022/08/04 05:13:56;;;;;;;18.35;9.38;;;;;;;20.05;85.71;101107.81;5104023;28;20043;-71
2022/08/04 05:16:45;;;;;;;19.00;9.75;;;;;;;20.09;86.02;101094.97;5103215;28;20030;-70
2022/08/04 05:19:23;;;;;;;16.45;9.85;;;;;;;20.08;86.24;101090.53;5098233;28;20120;-70
2022/08/04 05:21:56;;;;;;;17.92;9.50;;;;;;;20.05;87.36;101082.72;5102144;28;20043;-70
2022/08/04 05:24:24;;;;;;;18.65;9.20;;;;;;;20.05;87.65;101090.25;5104081;28;20084;-70
2022/08/04 05:26:53;;;;;;;15.00;8.68;;;;;;;20.07;88.26;101088.00;5102273;28;20035;-70
2022/08/04 05:29:27;;;;;;;17.85;9.23;;;;;;;20.16;87.93;101094.63;5102843;28;20500;-70
2022/08/04 05:31:54;;;;;;;14.57;9.15;;;;;;;20.19;88.18;101094.91;5096698;28;20121;-70
2022/08/04 05:34:24;;;;;;;17.10;8.73;;;;;;;20.30;87.50;101090.09;5104337;28;20054;-70
2022/08/04 05:36:54;;;;;;;16.95;9.18;;;;;;;20.35;87.60;101098.41;5101090;28;20486;-70
2022/08/04 05:39:27;;;;;;;14.75;9.13;;;;;;;20.38;88.03;101089.47;5106597;28;20560;-70
2022/08/04 05:41:55;;;;;;;15.57;8.35;;;;;;;20.42;87.45;101089.72;5105865;28;20024;-70
2022/08/04 05:44:22;;;;;;;23.35;8.75;;;;;;;20.46;88.43;101096.38;5107610;28;20023;-69
2022/08/04 05:46:51;;;;;;;16.13;9.15;;;;;;;20.55;88.49;101097.47;5101073;28;20028;-70
2022/08/04 05:49:18;;;;;;;18.60;8.98;;;;;;;20.61;88.44;101085.13;5107603;28;20015;-70
2022/08/04 05:51:45;;;;;;;14.98;8.35;;;;;;;20.64;89.19;101084.56;5104546;27;20047;-70
2022/08/04 05:54:12;;;;;;;18.15;8.07;;;;;;;20.70;88.48;101072.22;5106220;28;20475;-70
2022/08/04 05:56:38;;;;;;;16.90;7.90;;;;;;;20.78;89.05;101069.91;5106874;28;20028;-69
2022/08/04 05:59:05;;;;;;;13.02;7.13;;;;;;;20.87;89.35;101070.94;5106871;28;20023;-70
2022/08/04 06:01:32;;;;;;;18.30;8.18;;;;;;;20.93;89.06;101081.78;5100053;28;20088;-70
2022/08/04 06:04:00;;;;;;;15.50;7.90;;;;;;;20.98;88.86;101075.28;5105019;28;20034;-70
2022/08/04 06:06:26;;;;;;;15.38;7.93;;;;;;;21.06;90.12;101073.81;5103194;28;20857;-69
2022/08/04 06:08:53;;;;;;;15.48;8.23;;;;;;;21.16;89.88;101077.34;5099734;28;20131;-70
2022/08/04 06:11:20;;;;;;;13.48;8.02;;;;;;;21.29;89.13;101069.34;5090374;28;20482;-71
2022/08/04 06:13:50;;;;;;;15.18;8.40;;;;;;;21.36;90.27;101067.91;5087154;28;20103;-70
2022/08/04 06:16:21;;;;;;;18.85;9.07;;;;;;;21.50;88.16;101076.41;5098779;28;20088;-70
2022/08/04 06:18:49;;;;;;;16.95;8.55;;;;;;;21.60;87.60;101075.47;5093785;28;20035;-69
2022/08/04 06:21:17;;;;;;;19.10;9.07;;;;;;;21.67;87.65;101071.16;5101840;28;20056;-69
2022/08/04 06:23:44;;;;;;;18.35;8.73;;;;;;;21.82;87.42;101072.09;5106922;28;20028;-70
2022/08/04 06:26:14;;;;;;;17.30;9.13;;;;;;;21.89;87.88;101072.53;5101537;28;20061;-70
2022/08/04 06:28:42;;;;;;;18.08;10.57;;;;;;;22.00;85.36;101076.88;5099313;28;20106;-71
2022/08/04 06:31:08;;;;;;;20.23;11.32;;;;;;;22.10;84.19;101073.94;5100981;28;20374;-69
2022/08/04 06:33:36;;;;;;;19.88;12.70;;;;;;;22.21;85.97;101069.03;5094517;28;20114;-70
2022/08/04 06:36:05;;;;;;;19.48;11.80;;;;;;;22.30;84.58;101078.38;5103620;28;20024;-70
2022/08/04 06:38:32;;;;;;;21.15;12.23;;;;;;;22.37;83.13;101086.41;5104333;28;20024;-70
2022/08/04 06:41:00;;;;;;;23.63;12.27;;;;;;;22.43;83.17;101086.00;5097804;28;20035;-70
2022/08/04 06:43:27;;;;;;;20.98;12.57;;;;;;;22.49;82.44;101092.34;5093713;28;20038;-70
2022/08/04 06:45:54;;;;;;;22.88;11.88;;;;;;;22.62;81.81;101088.78;5103525;28;20145;-70
2022/08/04 06:48:20;;;;;;;23.63;12.55;;;;;;;22.82;80.47;101095.19;5106015;28;20050;-69
2022/08/04 06:50:48;;;;;;;22.30;12.60;;;;;;;23.09;78.95;101100.03;5099756;28;20020;-70
2022/08/04 06:53:13;;;;;;;21.13;11.68;;;;;;;23.47;77.89;101095.94;5089265;28;20055;-71
2022/08/04 06:55:41;;;;;;;22.88;12.30;;;;;;;23.59;76.99;101098.19;5104506;28;20035;-70
2022/08/04 06:58:07;;;;;;;;;;;;;;;23.72;78.61;101091.78;5100496;28;20011;-70
2022/08/04 07:00:34;;;;;;;21.00;12.50;;;;;;;23.65;78.18;101096.16;5104020;28;19919;-70
2022/08/04 07:03:01;;;;;;;23.48;13.15;;;;;;;23.61;78.21;101100.69;5094513;28;20111;-71
2022/08/04 07:05:27;;;;;;;19.40;12.77;;;;;;;23.67;78.15;101096.66;5100160;28;20060;-70
2022/08/04 07:07:53;;;;;;;22.42;13.40;;;;;;;23.81;75.50;101103.91;5099668;28;20452;-70
2022/08/04 07:10:20;;;;;;;19.00;14.00;;;;;;;23.81;75.33;101103.09;5100051;28;20020;-70
2022/08/04 07:12:46;;;;;;;22.10;14.00;;;;;;;23.79;75.47;101105.38;5104281;28;20027;-70
2022/08/04 07:15:13;;;;;;;21.63;14.05;;;;;;;23.67;75.60;101102.25;5102032;28;20027;-70
2022/08/04 07:17:39;;;;;;;23.23;14.35;;;;;;;23.63;75.62;101104.88;5102123;28;20020;-69
2022/08/04 07:20:05;;;;;;;21.73;14.10;;;;;;;23.53;74.22;101099.44;5098970;28;20111;-70
2022/08/04 07:22:31;;;;;;;20.85;14.25;;;;;;;23.54;75.83;101107.53;5092906;28;20040;-69
2022/08/04 07:24:58;;;;;;;21.58;14.98;;;;;;;23.59;74.69;101103.81;5095302;28;20027;-70
2022/08/04 07:27:25;;;;;;;21.55;15.05;;;;;;;23.58;75.65;101115.34;5092834;28;20065;-70
2022/08/04 07:29:50;;;;;;;24.13;15.77;;;;;;;23.56;76.81;101110.03;5100097;28;20062;-68
2022/08/04 07:32:18;;;;;;;25.60;15.25;;;;;;;23.50;76.95;101116.88;5099625;28;20468;-69
2022/08/04 07:34:44;;;;;;;23.30;15.80;;;;;;;23.44;78.02;101115.34;5090863;28;20030;-70
2022/08/04 07:37:09;;;;;;;24.33;14.63;;;;;;;23.40;77.46;101114.28;5099723;28;20028;-70
2022/08/04 07:39:35;;;;;;;26.20;16.67;;;;;;;23.38;78.62;101110.97;5091755;28;20092;-70
2022/08/04 07:42:02;;;;;;;22.02;15.18;;;;;;;23.36;77.19;101111.25;5086929;28;20047;-69
2022/08/04 07:44:29;;;;;;;19.58;14.23;;;;;;;23.51;77.19;101118.53;5096674;28;20035;-70
2022/08/04 07:46:55;;;;;;;23.20;15.07;;;;;;;23.82;75.59;101118.75;5091615;28;20142;-69
2022/08/04 07:49:20;;;;;;;22.00;15.18;;;;;;;23.99;75.43;101116.16;5098277;28;20122;-66
2022/08/04 07:51:46;;;;;;;23.85;14.45;;;;;;;24.15;75.54;101115.81;5091423;28;20490;-65
2022/08/04 07:54:13;;;;;;;24.45;14.73;;;;;;;24.25;73.16;101121.19;5101571;28;20027;-65
2022/08/04 07:56:40;;;;;;;22.73;14.13;;;;;;;24.37;73.21;101124.28;5093809;28;20077;-65
2022/08/04 07:59:06;;;;;;;22.67;14.07;;;;;;;24.58;73.16;101119.00;5095314;28;20297;-66
2022/08/04 08:01:33;;;;;;;21.05;12.35;;;;;;;24.67;73.39;101119.09;5095110;27;20051;-66
2022/08/04 08:04:00;;;;;;;84.18;17.40;;;;;;;24.69;72.59;101126.06;5101418;28;20056;-65
2022/08/04 08:06:28;;;;;;;28.38;12.73;;;;;;;24.70;71.44;101113.66;5101492;28;20039;-66
2022/08/04 08:08:53;;;;;;;20.10;10.75;;;;;;;24.70;70.80;101115.66;5101289;28;20060;-66
2022/08/04 08:11:19;;;;;;;19.70;10.63;;;;;;;24.70;69.33;101124.91;5104433;28;20382;-65
2022/08/04 08:13:44;;;;;;;18.23;9.50;;;;;;;24.71;69.31;101122.91;5104289;28;20040;-66
2022/08/04 08:16:10;;;;;;;17.05;8.95;;;;;;;24.73;69.07;101129.03;5101881;28;20662;-66
2022/08/04 08:18:36;;;;;;;23.20;9.63;;;;;;;24.84;67.88;101134.09;5100832;28;20031;-66
2022/08/04 08:21:02;;;;;;;14.63;7.72;;;;;;;24.97;68.86;101139.94;5101104;28;20027;-66
2022/08/04 08:23:30;;;;;;;15.45;8.27;;;;;;;25.11;68.55;101132.31;5104473;28;20024;-66
2022/08/04 08:25:56;;;;;;;15.02;8.23;;;;;;;25.23;65.76;101124.09;5101728;28;20077;-65
2022/08/04 08:28:22;;;;;;;16.05;7.93;;;;;;;25.43;65.52;101131.13;5090966;28;20444;-64
2022/08/04 08:30:47;;;;;;;15.18;7.50;;;;;;;25.72;66.55;101136.22;5095130;28;20020;-64
2022/08/04 08:33:14;;;;;;;16.00;6.43;;;;;;;25.85;65.70;101140.94;5100629;28;20046;-70
2022/08/04 08:35:52;;;;;;;16.13;6.57;;;;;;;25.96;63.94;101141.47;5103449;28;20045;-66
2022/08/04 08:38:24;;;;;;;13.43;6.10;;;;;;;26.00;62.18;101135.97;5101633;28;20035;-69
2022/08/04 08:41:13;;;;;;;13.20;6.53;;;;;;;26.20;63.84;101138.16;5104056;28;20553;-69
2022/08/04 08:43:57;;;;;;;14.65;6.22;;;;;;;26.29;60.98;101147.44;5100966;28;20081;-68
2022/08/04 08:46:25;;;;;;;10.77;4.55;;;;;;;26.36;60.32;101138.53;5082723;28;20111;-69
2022/08/04 08:49:12;;;;;;;11.38;5.10;;;;;;;26.35;60.01;101142.50;5094139;28;20032;-68
2022/08/04 08:52:09;;;;;;;9.63;4.25;;;;;;;26.45;60.93;101152.63;5103135;28;20127;-68
2022/08/04 08:54:55;;;;;;;11.68;4.90;;;;;;;26.50;60.02;101156.13;5102822;28;20070;-69
2022/08/04 08:57:45;;;;;;;11.60;4.20;;;;;;;26.68;60.94;101159.78;5089495;28;20114;-68
2022/08/04 09:00:15;;;;;;;11.00;3.47;;;;;;;26.82;56.76;101154.78;5089057;28;20470;-69
2022/08/04 09:02:55;;;;;;;10.35;3.65;;;;;;;26.99;57.54;101151.13;5102013;28;20697;-69
2022/08/04 09:06:03;;;;;;;11.00;3.42;;;;;;;27.22;58.21;101156.56;5103291;28;20024;-70
2022/08/04 09:08:58;;;;;;;9.50;3.58;;;;;;;27.41;58.26;101157.81;5057667;28;20032;-69
2022/08/04 09:11:28;;;;;;;12.43;4.57;;;;;;;27.47;55.48;101163.28;5101898;28;20080;-69
2022/08/04 09:13:59;;;;;;;10.90;3.53;;;;;;;27.79;54.65;101151.41;5096907;28;20028;-68
2022/08/04 09:16:34;;;;;;;11.18;3.22;;;;;;;28.21;53.34;101161.94;5099409;28;20565;-71
2022/08/04 09:19:11;;;;;;;12.70;3.13;;;;;;;28.35;53.83;101168.19;5093117;28;20027;-71
2022/08/04 09:22:15;;;;;;;8.32;2.53;;;;;;;28.10;53.50;101168.00;5090390;28;20724;-73
2022/08/04 09:25:03;;;;;;;12.10;2.70;;;;;;;27.89;52.34;101167.94;5074021;28;20398;-72
2022/08/04 09:27:51;;;;;;;10.30;2.30;;;;;;;27.98;52.57;101173.56;5105243;28;20031;-72
2022/08/04 09:30:26;;;;;;;8.70;2.88;;;;;;;27.76;52.22;101177.47;5107098;27;20076;-65
2022/08/04 09:33:03;;;;;;;9.38;3.05;;;;;;;27.58;53.39;101181.53;5101977;28;20040;-68
2022/08/04 09:35:45;;;;;;;;;;;;;;;27.59;54.17;101183.16;5095690;28;20080;-66
2022/08/04 09:38:26;;;;;;;9.70;2.50;;;;;;;27.29;54.84;101191.56;5106627;28;20119;-67
2022/08/04 09:41:15;;;;;;;11.57;3.08;;;;;;;27.45;55.17;101191.84;5094871;28;20110;-67
2022/08/04 09:44:02;;;;;;;10.57;2.78;;;;;;;27.94;53.53;101192.34;5104968;28;20115;-67
2022/08/04 09:46:35;;;;;;;14.65;3.25;;;;;;;28.06;52.52;101188.78;5107040;28;20055;-67
2022/08/04 09:49:07;;;;;;;10.43;2.78;;;;;;;27.73;53.83;101197.06;5104307;27;20030;-67
2022/08/04 09:51:44;;;;;;;10.27;2.60;;;;;;;27.49;55.08;101209.75;5099658;28;20044;-66
2022/08/04 09:54:26;;;;;;;12.73;3.05;;;;;;;27.29;54.86;101214.13;5106320;28;20385;-66
2022/08/04 09:57:06;;;;;;;10.77;2.50;;;;;;;27.15;55.44;101221.94;5089705;28;20393;-67
2022/08/04 09:59:45;;;;;;;11.80;2.75;;;;;;;26.98;55.44;101227.56;5105316;28;20081;-67
2022/08/04 10:02:14;;;;;;;11.50;2.72;;;;;;;26.81;56.42;101234.84;5106131;28;20030;-67
2022/08/04 10:04:42;;;;;;;11.30;2.75;;;;;;;26.66;56.71;101232.50;5106894;28;20030;-66
2022/08/04 10:07:39;;;;;;;14.18;2.65;;;;;;;26.62;57.54;101235.19;5105198;28;20482;-67
2022/08/04 10:10:26;;;;;;;10.75;2.30;;;;;;;26.37;58.25;101239.59;5095673;28;20110;-66
2022/08/04 10:12:54;;;;;;;9.45;2.42;;;;;;;26.07;57.54;101249.78;5093891;28;20071;-66
2022/08/04 10:15:30;;;;;;;7.43;2.25;;;;;;;25.84;58.75;101251.81;5100961;28;20037;-66
2022/08/04 10:18:10;;;;;;;11.60;2.67;;;;;;;25.59;60.40;101258.09;5106157;28;20024;-66
2022/08/04 10:20:50;;;;;;;5.88;2.25;;;;;;;25.41;62.53;101239.47;5088485;28;20107;-66
2022/08/04 10:23:32;;;;;;;10.93;3.00;;;;;;;25.15;64.27;101245.75;5093123;28;20524;-66
2022/08/04 10:26:16;;;;;;;11.85;3.20;;;;;;;24.90;66.06;101269.66;5102476;28;20034;-66
2022/08/04 10:29:02;;;;;;;11.05;2.95;;;;;;;24.65;67.06;101318.84;5106389;28;20027;-68
2022/08/04 10:31:33;;;;;;;13.25;3.35;;;;;;;24.48;69.44;101332.66;5097838;28;20111;-66
2022/08/04 10:34:16;;;;;;;13.25;3.55;;;;;;;24.31;71.60;101336.91;5106501;28;20026;-66
2022/08/04 10:37:26;;;;;;;10.85;3.78;;;;;;;24.16;74.80;101325.97;5105890;28;20028;-65
2022/08/04 10:42:55;;;;;;;10.20;4.25;;;;;;;23.56;82.18;101311.91;5106625;28;20042;-66
2022/08/04 10:45:32;;;;;;;10.10;4.45;;;;;;;23.34;82.62;101317.34;5105839;28;20028;-66
2022/08/04 10:48:09;;;;;;;12.63;4.32;;;;;;;23.33;81.08;101290.47;5100486;28;20386;-66
2022/08/04 10:50:39;;;;;;;10.65;4.38;;;;;;;23.03;85.72;101273.00;5093861;28;20406;-66
2022/08/04 10:53:24;;;;;;;13.32;4.82;;;;;;;22.98;86.36;101265.50;5099658;28;20046;-66
2022/08/04 10:55:58;;;;;;;11.07;4.90;;;;;;;22.91;88.33;101255.81;5106932;28;20367;-66
2022/08/04 10:58:32;;;;;;;13.30;5.60;;;;;;;22.95;88.85;101235.28;5103175;27;20104;-66
2022/08/04 11:01:01;;;;;;;10.77;5.63;;;;;;;23.12;89.65;101234.75;5103343;28;20032;-66
2022/08/04 11:03:48;;;;;;;16.42;5.90;;;;;;;23.38;88.77;101242.72;5104612;28;20027;-65
2022/08/04 11:06:14;;;;;;;9.90;5.70;;;;;;;23.81;89.39;101246.13;5103191;28;20114;-66
2022/08/04 11:08:46;;;;;;;10.90;5.30;;;;;;;24.15;87.62;101251.34;5105521;28;20114;-65
2022/08/04 11:11:13;;;;;;;15.80;5.95;;;;;;;24.15;86.50;101267.38;5105936;28;20420;-65
2022/08/04 11:14:05;;;;;;;11.50;5.50;;;;;;;24.09;85.48;101283.47;5105182;28;20027;-66
2022/08/04 11:16:52;;;;;;;12.93;6.20;;;;;;;23.88;85.46;101274.63;5100162;28;20059;-66
2022/08/04 11:19:40;;;;;;;11.40;6.15;;;;;;;23.61;85.13;101255.72;5102518;28;20036;-66
2022/08/04 11:22:13;;;;;;;12.30;6.15;;;;;;;23.39;85.47;101255.59;5084930;28;20024;-65
2022/08/04 11:24:49;;;;;;;12.52;6.45;;;;;;;23.31;88.01;101240.28;5092125;28;20092;-66
2022/08/04 11:27:24;;;;;;;12.30;6.53;;;;;;;23.28;88.34;101249.34;5105118;28;20478;-66
2022/08/04 11:30:07;;;;;;;12.43;6.40;;;;;;;23.41;88.07;101251.31;5105155;28;20035;-65
2022/08/04 11:32:47;;;;;;;13.90;7.40;;;;;;;23.52;88.62;101252.84;5099290;28;20024;-66
2022/08/04 11:35:37;;;;;;;10.98;6.18;;;;;;;23.99;87.89;101245.22;5096618;28;20484;-66
2022/08/04 11:38:39;;;;;;;13.70;5.93;;;;;;;24.66;82.21;101247.47;5105299;28;20073;-66
2022/08/04 11:41:10;;;;;;;10.98;5.40;;;;;;;25.42;78.31;101244.78;5073029;28;20100;-66
2022/08/04 11:43:43;;;;;;;12.32;6.28;;;;;;;26.06;77.06;101245.31;5104722;27;20019;-66
2022/08/04 11:46:14;;;;;;;12.75;6.05;;;;;;;26.68;76.13;101232.22;5104368;28;20065;-65
2022/08/04 11:48:49;;;;;;;12.90;6.28;;;;;;;27.16;76.68;101241.31;5085952;28;20043;-66
2022/08/04 11:51:17;;;;;;;10.30;5.57;;;;;;;27.58;70.44;101252.06;5080777;28;20061;-66
2022/08/04 11:53:43;;;;;;;10.35;5.00;;;;;;;27.78;67.35;101251.38;5084560;28;20016;-66
2022/08/04 11:56:14;;;;;;;9.65;4.85;;;;;;;28.09;68.31;101250.25;5093792;28;20038;-66
2022/08/04 11:58:40;;;;;;;9.65;4.43;;;;;;;28.30;66.92;101239.81;5091689;28;20044;-66
2022/08/04 12:01:24;;;;;;;10.65;4.07;;;;;;;28.45;61.55;101235.59;5096418;28;20036;-66